Time;durP1;ratioP1;P1;durP2;ratioP2;P2;SDS_P1;SDS_P2;PMS_P1;PMS_P2;Temp;Humidity;BMP_temperature;BMP_pressure;BME280_temperature;BME280_humidity;BME280_pressure;Samples;Min_cycle;Max_cycle;Signal;HPM_P1;HPM_P2
2022/11/03 00:00:11;;;;;;;14.40;3.00;;;11.00;99.90;;;;;;5035060;28;20088;-83
2022/11/03 00:02:37;;;;;;;13.75;2.88;;;10.90;99.90;;;;;;5036918;28;20053;-88
2022/11/03 00:06:03;;;;;;;12.18;2.63;;;10.90;99.90;;;;;;5035195;28;20045;-88
2022/11/03 00:07:49;;;;;;;17.38;3.88;;;10.90;99.90;;;;;;5034768;28;20053;-83
2022/11/03 00:10:15;;;;;;;15.38;2.97;;;10.90;99.90;;;;;;5038536;28;20050;-89
2022/11/03 00:12:44;;;;;;;15.27;3.03;;;10.90;99.90;;;;;;5033009;28;20065;-88
2022/11/03 00:15:10;;;;;;;17.13;3.28;;;10.80;99.90;;;;;;5015906;28;20569;-86
2022/11/03 00:17:36;;;;;;;17.38;3.70;;;10.80;99.90;;;;;;5036952;28;20053;-84
2022/11/03 00:20:02;;;;;;;15.80;2.85;;;10.80;99.90;;;;;;5019911;28;20060;-86
2022/11/03 00:22:28;;;;;;;13.55;2.88;;;10.70;99.90;;;;;;5034899;28;20059;-91
2022/11/03 00:24:54;;;;;;;11.18;2.47;;;10.70;99.90;;;;;;5031928;28;20140;-87
2022/11/03 00:27:20;;;;;;;18.20;3.20;;;10.70;99.90;;;;;;5036321;28;20643;-85
2022/11/03 00:29:46;;;;;;;18.17;3.70;;;10.70;99.90;;;;;;5033405;28;20080;-83
2022/11/03 00:32:12;;;;;;;18.90;3.67;;;10.70;99.90;;;;;;5040587;28;20065;-87
2022/11/03 00:34:39;;;;;;;21.75;2.72;;;10.70;99.90;;;;;;5039358;28;20370;-82
2022/11/03 00:37:05;;;;;;;15.75;3.13;;;10.60;99.90;;;;;;5018610;28;20065;-82
2022/11/03 00:39:31;;;;;;;13.05;3.53;;;10.60;99.90;;;;;;5018041;28;20053;-83
2022/11/03 00:41:56;;;;;;;14.02;3.72;;;10.60;99.90;;;;;;5033878;28;20056;-87
2022/11/03 00:44:22;;;;;;;14.10;2.95;;;10.60;99.90;;;;;;5034826;28;20049;-82
2022/11/03 00:46:48;;;;;;;16.55;3.55;;;10.60;99.90;;;;;;5018455;28;20055;-82
2022/11/03 00:49:14;;;;;;;8.32;2.20;;;10.60;99.90;;;;;;5036705;28;20403;-88
2022/11/03 00:51:40;;;;;;;15.52;2.60;;;10.60;99.90;;;;;;5036776;28;20408;-88
2022/11/03 00:54:07;;;;;;;21.80;2.70;;;10.60;99.90;;;;;;5034365;28;20057;-83
2022/11/03 00:56:35;;;;;;;13.77;2.50;;;10.50;99.90;;;;;;5031949;28;20045;-82
2022/11/03 00:59:03;;;;;;;16.38;3.13;;;10.50;99.90;;;;;;5031654;28;20057;-90
2022/11/03 01:01:35;;;;;;;17.00;3.80;;;10.50;99.90;;;;;;5034084;28;20041;-84
2022/11/03 01:06:50;;;;;;;22.58;3.75;;;10.50;99.90;;;;;;5037307;28;20045;-85
2022/11/03 01:09:28;;;;;;;11.02;3.03;;;10.50;99.90;;;;;;5031779;28;20057;-83
2022/11/03 01:12:00;;;;;;;13.75;3.53;;;10.50;99.90;;;;;;5031341;28;20485;-84
2022/11/03 01:14:29;;;;;;;12.20;3.22;;;10.50;99.90;;;;;;5032064;28;20446;-87
2022/11/03 01:16:55;;;;;;;17.73;4.53;;;10.50;99.90;;;;;;5032144;28;20091;-83
2022/11/03 01:19:22;;;;;;;14.80;3.10;;;10.50;99.90;;;;;;5031156;28;20083;-85
2022/11/03 01:21:48;;;;;;;18.52;3.45;;;10.50;99.90;;;;;;5036239;28;20433;-84
2022/11/03 01:24:14;;;;;;;17.15;4.82;;;10.50;99.90;;;;;;5035932;28;20151;-83
2022/11/03 01:26:40;;;;;;;24.15;4.15;;;10.50;99.90;;;;;;5030700;28;20524;-85
2022/11/03 01:29:06;;;;;;;14.57;3.03;;;10.50;99.90;;;;;;5032025;28;20053;-84
2022/11/03 01:31:32;;;;;;;15.80;2.78;;;10.40;99.90;;;;;;5031225;28;20056;-84
2022/11/03 01:33:58;;;;;;;17.98;3.70;;;10.40;99.90;;;;;;5029829;28;20061;-82
2022/11/03 01:36:25;;;;;;;17.88;2.97;;;10.40;99.90;;;;;;5032609;28;20046;-92
2022/11/03 01:38:52;;;;;;;16.48;2.85;;;10.40;99.90;;;;;;5036927;28;20057;-92
2022/11/03 01:41:21;;;;;;;11.68;2.40;;;10.30;99.90;;;;;;5039315;28;20111;-84
2022/11/03 01:43:51;;;;;;;13.07;2.63;;;10.30;99.90;;;;;;5035125;28;20058;-88
2022/11/03 01:46:24;;;;;;;12.85;2.72;;;10.40;99.90;;;;;;5035868;28;20053;-84
2022/11/03 01:49:16;;;;;;;14.50;3.20;;;10.30;99.90;;;;;;5034444;28;20183;-87
2022/11/03 01:51:46;;;;;;;23.92;4.03;;;10.30;99.90;;;;;;5033892;28;20125;-88
2022/11/03 01:54:17;;;;;;;13.50;2.65;;;10.30;99.90;;;;;;5034694;28;20187;-83
2022/11/03 01:56:47;;;;;;;14.57;3.30;;;10.30;99.90;;;;;;5038137;28;20420;-84
2022/11/03 01:59:16;;;;;;;15.00;2.80;;;10.30;99.90;;;;;;5035506;28;20053;-83
2022/11/03 02:01:43;;;;;;;12.65;3.50;;;10.30;99.90;;;;;;5036235;28;20520;-87
2022/11/03 02:04:22;;;;;;;14.85;2.83;;;10.30;99.90;;;;;;5035148;28;20057;-83
2022/11/03 02:06:57;;;;;;;18.58;4.18;;;10.30;99.90;;;;;;5017350;28;20049;-83
2022/11/03 02:09:24;;;;;;;15.40;2.92;;;10.20;99.90;;;;;;5024180;28;20064;-87
2022/11/03 02:12:07;;;;;;;9.82;2.67;;;10.20;99.90;;;;;;5034585;28;20049;-85
2022/11/03 02:14:42;;;;;;;17.65;3.03;;;10.20;99.90;;;;;;5038509;28;20456;-92
2022/11/03 02:17:11;;;;;;;7.95;2.72;;;10.20;99.90;;;;;;5035560;28;20045;-83
2022/11/03 02:19:46;;;;;;;19.98;4.15;;;10.20;99.90;;;;;;5034143;28;20238;-84
2022/11/03 02:22:38;;;;;;;14.23;3.10;;;10.20;99.90;;;;;;5034270;28;20103;-86
2022/11/03 02:25:17;;;;;;;12.20;2.78;;;10.20;99.90;;;;;;5035381;28;20089;-89
2022/11/03 02:27:44;;;;;;;11.63;3.15;;;10.20;99.90;;;;;;5033615;28;20046;-83
2022/11/03 02:30:10;;;;;;;17.90;3.15;;;10.20;99.90;;;;;;5033892;28;20115;-84
2022/11/03 02:32:47;;;;;;;14.82;3.15;;;10.20;99.90;;;;;;5039819;28;20092;-86
2022/11/03 02:35:29;;;;;;;13.05;2.72;;;10.20;99.90;;;;;;5034174;28;20052;-83
2022/11/03 02:37:58;;;;;;;14.27;2.63;;;10.10;99.90;;;;;;5033498;28;20141;-92
2022/11/03 02:40:33;;;;;;;12.90;3.65;;;10.20;99.90;;;;;;5036252;28;20560;-88
2022/11/03 02:43:01;;;;;;;15.50;3.55;;;10.20;99.90;;;;;;5016803;28;20061;-83
2022/11/03 02:45:27;;;;;;;14.10;3.83;;;10.20;99.90;;;;;;5033021;28;20050;-84
2022/11/03 02:47:57;;;;;;;17.48;3.45;;;10.20;99.90;;;;;;5016132;28;20057;-86
2022/11/03 02:50:31;;;;;;;18.33;3.80;;;10.20;99.90;;;;;;5039438;28;20101;-84
2022/11/03 02:52:59;;;;;;;14.63;3.15;;;10.20;99.90;;;;;;5036849;28;20057;-89
2022/11/03 02:55:32;;;;;;;13.40;2.75;;;10.20;99.90;;;;;;5033574;28;20143;-88
2022/11/03 02:58:06;;;;;;;11.90;3.55;;;10.20;99.90;;;;;;5033707;28;20144;-83
2022/11/03 03:00:44;;;;;;;14.88;2.92;;;10.20;99.90;;;;;;5032756;28;20089;-83
2022/11/03 03:03:21;;;;;;;14.55;2.45;;;10.20;99.90;;;;;;5033140;28;20498;-88
2022/11/03 03:05:48;;;;;;;19.45;4.32;;;10.30;99.90;;;;;;5032957;28;20535;-83
2022/11/03 03:08:14;;;;;;;15.77;2.97;;;10.30;99.90;;;;;;5037813;28;20088;-88
2022/11/03 03:10:43;;;;;;;16.20;3.88;;;10.30;99.90;;;;;;5033301;28;20588;-85
2022/11/03 03:13:13;;;;;;;11.55;2.60;;;10.30;99.90;;;;;;5034988;28;20576;-84
2022/11/03 03:15:55;;;;;;;15.65;3.03;;;10.30;99.90;;;;;;5033320;28;20842;-84
2022/11/03 03:18:37;;;;;;;8.82;2.85;;;10.30;99.90;;;;;;5032916;28;20050;-84
2022/11/03 03:21:13;;;;;;;16.95;3.17;;;10.40;99.90;;;;;;5034150;28;20478;-86
2022/11/03 03:23:48;;;;;;;14.80;2.80;;;10.40;99.90;;;;;;5032775;28;20370;-90
2022/11/03 03:26:28;;;;;;;11.95;3.40;;;10.40;99.90;;;;;;5037948;28;20060;-90
2022/11/03 03:29:13;;;;;;;12.57;3.40;;;10.50;99.90;;;;;;5036574;28;20088;-86
2022/11/03 03:31:46;;;;;;;20.92;3.17;;;10.50;99.90;;;;;;5034777;28;20061;-87
2022/11/03 03:34:14;;;;;;;15.15;2.70;;;10.50;99.90;;;;;;5033050;28;20137;-84
2022/11/03 03:36:42;;;;;;;20.23;3.47;;;10.60;99.90;;;;;;5035006;28;20049;-91
2022/11/03 03:39:10;;;;;;;13.25;2.85;;;10.50;99.90;;;;;;5033245;28;20100;-90
2022/11/03 03:41:37;;;;;;;18.05;3.95;;;10.60;99.90;;;;;;5034756;28;20045;-88
2022/11/03 03:44:07;;;;;;;12.73;3.15;;;10.60;99.90;;;;;;5034055;28;20057;-83
2022/11/03 03:46:40;;;;;;;12.00;2.97;;;10.60;99.90;;;;;;5035496;28;20049;-84
2022/11/03 03:49:07;;;;;;;12.80;3.00;;;10.50;99.90;;;;;;5031542;28;20072;-85
2022/11/03 03:51:34;;;;;;;20.50;4.03;;;10.50;99.90;;;;;;5032522;28;20508;-86
2022/11/03 03:54:00;;;;;;;17.70;3.10;;;10.50;99.90;;;;;;5034258;28;20065;-89
2022/11/03 03:56:50;;;;;;;13.35;3.08;;;10.40;99.90;;;;;;5035873;28;20553;-83
2022/11/03 03:59:16;;;;;;;18.02;3.08;;;10.50;99.90;;;;;;5030115;28;20049;-88
2022/11/03 04:01:42;;;;;;;16.75;3.20;;;10.50;99.90;;;;;;5034091;28;20104;-84
2022/11/03 04:04:08;;;;;;;21.30;3.15;;;10.40;99.90;;;;;;5036408;28;20089;-91
2022/11/03 04:06:34;;;;;;;17.65;2.92;;;10.40;99.90;;;;;;5033624;28;20146;-82
2022/11/03 04:09:00;;;;;;;22.15;3.78;;;10.40;99.90;;;;;;5031175;28;20049;-87
2022/11/03 04:22:30;;;;;;;17.85;3.45;;;10.30;99.90;;;;;;5032504;28;20095;-86
2022/11/03 04:24:57;;;;;;;16.15;3.40;;;10.30;99.90;;;;;;5032145;28;20057;-87
2022/11/03 04:27:31;;;;;;;16.58;3.30;;;10.30;99.90;;;;;;5032063;28;20044;-86
2022/11/03 04:30:18;;;;;;;12.55;2.63;;;10.40;99.90;;;;;;5034935;28;20057;-94
2022/11/03 04:32:47;;;;;;;18.90;4.18;;;10.40;99.90;;;;;;5034075;28;20045;-93
2022/11/03 04:35:19;;;;;;;13.05;2.97;;;10.40;99.90;;;;;;5036346;28;20057;-83
2022/11/03 04:37:58;;;;;;;10.57;3.05;;;10.40;99.90;;;;;;5032691;28;20053;-83
2022/11/03 04:40:24;;;;;;;14.70;3.10;;;10.40;99.90;;;;;;5032769;28;20041;-83
2022/11/03 04:42:49;;;;;;;16.17;2.85;;;10.40;99.90;;;;;;5019407;28;20069;-83
2022/11/03 04:45:28;;;;;;;15.93;3.30;;;10.40;99.90;;;;;;5020994;28;20057;-89
2022/11/03 04:47:58;;;;;;;16.10;3.60;;;10.40;99.90;;;;;;5031976;28;20052;-84
2022/11/03 04:50:25;;;;;;;16.23;3.35;;;10.40;99.90;;;;;;5030628;28;20081;-85
2022/11/03 04:52:55;;;;;;;13.82;3.65;;;10.40;99.90;;;;;;5037852;28;20107;-85
2022/11/03 04:55:21;;;;;;;18.30;3.45;;;10.30;99.90;;;;;;5036678;28;20123;-87
2022/11/03 04:57:49;;;;;;;16.40;3.67;;;10.30;99.90;;;;;;5034274;28;20103;-83
2022/11/03 05:00:17;;;;;;;12.43;3.42;;;10.30;99.90;;;;;;5017078;28;20537;-93
2022/11/03 05:02:46;;;;;;;11.40;2.83;;;10.30;99.90;;;;;;5035510;28;20057;-86
2022/11/03 05:05:22;;;;;;;15.00;2.72;;;10.20;99.90;;;;;;5031332;28;20049;-84
2022/11/03 05:07:52;;;;;;;15.98;3.10;;;10.20;99.90;;;;;;5032386;28;20136;-85
2022/11/03 05:10:23;;;;;;;16.17;3.60;;;10.20;99.90;;;;;;5031054;28;20140;-90
2022/11/03 05:12:50;;;;;;;12.27;2.97;;;10.20;99.90;;;;;;5036639;28;20121;-84
2022/11/03 05:15:56;;;;;;;14.15;3.28;;;10.20;99.90;;;;;;5023670;28;20056;-87
2022/11/03 05:18:32;;;;;;;20.75;4.20;;;10.20;99.90;;;;;;5007106;28;20050;-86
2022/11/03 05:21:11;;;;;;;16.58;3.22;;;10.10;99.90;;;;;;4987464;28;20047;-91
2022/11/03 05:23:49;;;;;;;9.77;2.60;;;10.10;99.90;;;;;;5002452;28;20518;-84
2022/11/03 05:26:23;;;;;;;18.50;3.42;;;10.20;99.90;;;;;;5001617;28;20046;-84
2022/11/03 05:29:28;;;;;;;17.33;3.17;;;10.20;99.90;;;;;;4993830;28;20053;-88
2022/11/03 05:31:55;;;;;;;14.50;3.13;;;10.20;99.90;;;;;;4966776;28;20194;-83
2022/11/03 05:34:39;;;;;;;19.00;3.55;;;10.20;99.90;;;;;;4963170;28;20058;-84
2022/11/03 05:37:05;;;;;;;23.63;4.70;;;10.10;99.90;;;;;;4981796;28;20197;-82
2022/11/03 05:39:40;;;;;;;12.95;3.35;;;10.20;99.90;;;;;;4996922;28;20137;-83
2022/11/03 05:42:38;;;;;;;11.30;3.50;;;10.20;99.90;;;;;;4995002;28;20101;-84
2022/11/03 05:45:33;;;;;;;14.95;3.10;;;10.20;99.90;;;;;;4980081;28;20050;-87
2022/11/03 05:48:01;;;;;;;15.32;3.17;;;10.30;99.90;;;;;;5003091;28;20113;-90
2022/11/03 05:50:34;;;;;;;15.05;3.58;;;10.30;99.90;;;;;;4985501;28;20141;-89
2022/11/03 05:53:10;;;;;;;14.43;3.25;;;10.30;99.90;;;;;;4997775;28;20054;-86
2022/11/03 05:55:36;;;;;;;18.63;4.10;;;10.30;99.90;;;;;;5001939;28;20497;-86
2022/11/03 05:58:31;;;;;;;13.05;2.88;;;10.40;99.90;;;;;;5035921;28;20128;-93
2022/11/03 06:00:59;;;;;;;20.77;3.25;;;10.40;99.90;;;;;;5026578;28;20503;-92
2022/11/03 06:03:28;;;;;;;14.70;3.10;;;10.40;99.90;;;;;;5037513;28;20447;-88
2022/11/03 06:05:55;;;;;;;18.15;3.28;;;10.40;99.90;;;;;;5038975;28;20073;-88
2022/11/03 06:08:32;;;;;;;16.40;3.40;;;10.50;99.90;;;;;;5039879;28;20605;-84
2022/11/03 06:11:00;;;;;;;12.10;3.30;;;10.50;99.90;;;;;;5042199;28;20060;-83
2022/11/03 06:13:32;;;;;;;14.73;3.35;;;10.50;99.90;;;;;;5045447;28;20049;-83
2022/11/03 06:16:05;;;;;;;13.57;2.72;;;10.50;99.90;;;;;;5027517;28;20111;-87
2022/11/03 06:18:37;;;;;;;11.52;2.60;;;10.60;99.90;;;;;;5046360;28;20080;-81
2022/11/03 06:21:12;;;;;;;10.38;2.75;;;10.60;99.90;;;;;;5044764;28;20059;-84
2022/11/03 06:23:39;;;;;;;11.77;2.75;;;10.60;99.90;;;;;;5043608;28;20109;-86
2022/11/03 06:26:15;;;;;;;15.10;3.03;;;10.70;99.90;;;;;;5044855;28;20510;-82
2022/11/03 06:28:43;;;;;;;14.45;2.92;;;10.70;99.90;;;;;;5035494;28;20049;-84
2022/11/03 06:31:42;;;;;;;15.38;3.85;;;10.80;99.90;;;;;;5040427;28;20093;-83
2022/11/03 06:34:44;;;;;;;15.05;2.63;;;10.80;99.90;;;;;;5000270;28;20053;-84
2022/11/03 06:37:34;;;;;;;17.23;3.15;;;10.80;99.90;;;;;;5044358;28;20227;-90
2022/11/03 06:40:23;;;;;;;11.00;2.95;;;10.80;99.90;;;;;;5025186;28;20057;-85
2022/11/03 06:42:52;;;;;;;11.65;2.78;;;10.80;99.90;;;;;;5000323;28;20050;-90
2022/11/03 06:45:19;;;;;;;17.02;3.72;;;10.80;99.90;;;;;;5035923;28;20064;-90
2022/11/03 06:47:45;;;;;;;11.25;2.70;;;10.80;99.90;;;;;;5035824;28;20131;-84
2022/11/03 06:50:23;;;;;;;9.35;2.67;;;10.80;99.90;;;;;;5037203;28;20057;-88
2022/11/03 06:52:50;;;;;;;15.88;3.47;;;10.80;99.90;;;;;;5034784;28;20049;-85
2022/11/03 06:55:32;;;;;;;10.13;3.38;;;10.80;99.90;;;;;;5033083;28;20054;-83
2022/11/03 06:58:03;;;;;;;14.98;3.35;;;10.70;99.90;;;;;;5035242;28;20054;-84
2022/11/03 07:00:30;;;;;;;11.02;2.85;;;10.80;99.90;;;;;;5039594;28;20527;-85
2022/11/03 07:03:20;;;;;;;13.88;3.13;;;10.80;99.90;;;;;;5035361;28;20049;-83
2022/11/03 07:05:46;;;;;;;14.23;2.63;;;10.80;99.90;;;;;;5035540;28;20057;-92
2022/11/03 07:08:22;;;;;;;10.35;2.92;;;10.80;99.90;;;;;;5033024;28;20132;-82
2022/11/03 07:10:56;;;;;;;13.38;3.45;;;10.80;99.90;;;;;;5033482;28;20057;-84
2022/11/03 07:13:23;;;;;;;16.65;3.60;;;10.80;99.90;;;;;;5032745;28;20460;-85
2022/11/03 07:15:51;;;;;;;16.33;2.97;;;10.90;99.90;;;;;;5039177;28;20064;-82
2022/11/03 07:18:24;;;;;;;10.98;2.40;;;10.90;99.90;;;;;;5036603;28;20144;-85
2022/11/03 07:20:52;;;;;;;15.57;3.90;;;10.90;99.90;;;;;;5036391;28;20052;-86
2022/11/03 07:23:22;;;;;;;9.75;2.20;;;11.00;99.90;;;;;;5035721;28;20088;-83
2022/11/03 07:25:53;;;;;;;14.07;2.50;;;11.00;99.90;;;;;;5033925;28;20083;-85
2022/11/03 07:28:22;;;;;;;12.18;2.70;;;11.00;99.90;;;;;;5032096;28;20052;-88
2022/11/03 07:30:48;;;;;;;15.43;3.13;;;11.10;99.90;;;;;;5040043;28;20073;-84
2022/11/03 07:33:26;;;;;;;14.40;2.72;;;11.10;99.90;;;;;;5033214;28;20419;-84
2022/11/03 07:35:56;;;;;;;17.15;3.83;;;11.10;99.90;;;;;;5041742;28;20517;-88
2022/11/03 07:38:24;;;;;;;11.45;2.72;;;11.10;99.90;;;;;;5039751;28;20163;-91
2022/11/03 07:40:51;;;;;;;19.98;4.10;;;11.10;99.90;;;;;;5033339;28;20049;-87
2022/11/03 07:43:30;;;;;;;13.25;2.65;;;11.20;99.90;;;;;;5032246;28;20517;-83
2022/11/03 07:46:01;;;;;;;11.02;2.53;;;11.20;99.90;;;;;;5035076;28;20046;-89
2022/11/03 07:48:39;;;;;;;12.85;2.70;;;11.20;99.90;;;;;;5033730;28;20052;-89
2022/11/03 07:51:14;;;;;;;14.27;2.83;;;11.30;99.90;;;;;;5032995;28;20195;-88
2022/11/03 07:53:41;;;;;;;;;;;11.30;99.90;;;;;;5033653;28;20378;-86
2022/11/03 07:56:25;;;;;;;9.48;2.70;;;11.30;99.90;;;;;;5034355;28;19921;-86
2022/11/03 07:59:03;;;;;;;13.53;3.00;;;11.40;99.90;;;;;;5037502;28;20045;-85
2022/11/03 08:01:33;;;;;;;17.55;3.50;;;11.40;99.90;;;;;;5032762;28;20088;-83
2022/11/03 08:04:05;;;;;;;11.95;3.08;;;11.40;99.90;;;;;;5033380;28;20052;-91
2022/11/03 08:06:31;;;;;;;12.73;2.90;;;11.40;99.90;;;;;;5035177;28;20409;-88
2022/11/03 08:08:59;;;;;;;12.32;2.92;;;11.40;99.90;;;;;;5031426;28;20134;-92
2022/11/03 08:11:25;;;;;;;12.32;2.88;;;11.40;99.90;;;;;;5032840;28;20565;-92
2022/11/03 08:13:51;;;;;;;12.93;3.10;;;11.50;99.90;;;;;;5037387;28;20505;-93
2022/11/03 08:16:18;;;;;;;12.13;3.10;;;11.50;99.90;;;;;;5035092;28;20049;-84
2022/11/03 08:18:44;;;;;;;15.57;3.03;;;11.50;99.90;;;;;;5034074;28;20514;-84
2022/11/03 08:21:10;;;;;;;17.20;2.88;;;11.60;99.90;;;;;;5036001;28;20107;-83
2022/11/03 08:23:36;;;;;;;15.60;2.90;;;11.60;99.90;;;;;;5032875;28;20077;-83
2022/11/03 08:26:02;;;;;;;7.50;2.35;;;11.70;99.90;;;;;;5034118;28;20073;-85
2022/11/03 08:28:29;;;;;;;14.00;3.55;;;11.70;99.90;;;;;;5041019;28;20061;-86
2022/11/03 08:31:00;;;;;;;14.70;3.28;;;11.70;99.90;;;;;;5039614;28;20045;-84
2022/11/03 08:33:27;;;;;;;13.77;3.22;;;11.80;99.90;;;;;;5032159;28;20061;-84
2022/11/03 08:35:53;;;;;;;14.30;2.83;;;11.90;99.90;;;;;;5034603;28;20393;-90
2022/11/03 08:38:19;;;;;;;11.30;2.72;;;11.90;99.90;;;;;;5033465;28;20053;-85
2022/11/03 08:40:45;;;;;;;13.57;3.00;;;12.00;99.90;;;;;;5031812;28;20125;-87
2022/11/03 08:43:11;;;;;;;12.25;2.95;;;12.00;99.90;;;;;;5031898;28;20561;-83
2022/11/03 08:45:40;;;;;;;13.38;4.20;;;12.10;99.90;;;;;;5038630;28;20132;-86
2022/11/03 08:48:06;;;;;;;15.48;4.53;;;12.10;99.90;;;;;;5033206;28;20057;-86
2022/11/03 08:50:32;;;;;;;12.65;3.55;;;12.10;99.90;;;;;;5035153;28;20397;-87
2022/11/03 08:52:58;;;;;;;19.25;4.03;;;12.20;99.90;;;;;;5031214;28;20049;-87
2022/11/03 08:55:24;;;;;;;14.80;3.58;;;12.20;99.90;;;;;;5030075;28;20049;-84
2022/11/03 08:57:50;;;;;;;12.20;3.33;;;12.20;99.90;;;;;;5029955;28;20417;-83
2022/11/03 09:00:16;;;;;;;11.80;3.80;;;12.30;99.90;;;;;;5033055;28;20050;-83
2022/11/03 09:02:43;;;;;;;11.57;2.65;;;12.30;99.90;;;;;;5034906;28;20383;-85
2022/11/03 09:05:13;;;;;;;15.60;3.72;;;12.40;99.90;;;;;;5033238;28;20045;-83
2022/11/03 09:07:39;;;;;;;16.60;3.30;;;12.40;99.90;;;;;;5034553;28;20425;-83
2022/11/03 09:10:08;;;;;;;13.07;3.60;;;12.50;99.90;;;;;;5032498;28;20060;-83
2022/11/03 09:12:34;;;;;;;16.75;4.43;;;12.50;99.90;;;;;;5033237;28;20075;-83
2022/11/03 09:15:00;;;;;;;17.23;4.80;;;12.50;99.90;;;;;;5039119;28;20050;-88
2022/11/03 09:17:26;;;;;;;12.60;3.22;;;12.60;99.90;;;;;;5031283;28;20477;-86
2022/11/03 09:19:52;;;;;;;13.07;4.40;;;12.60;99.90;;;;;;5031544;28;20060;-85
2022/11/03 09:22:18;;;;;;;10.48;2.70;;;12.70;99.90;;;;;;5031958;28;20058;-82
2022/11/03 09:24:44;;;;;;;8.57;2.25;;;12.80;99.90;;;;;;5034213;28;20136;-90
2022/11/03 09:27:09;;;;;;;10.10;2.65;;;12.80;99.90;;;;;;5031349;28;20081;-89
2022/11/03 09:29:35;;;;;;;14.55;3.00;;;12.90;99.90;;;;;;5032264;28;20049;-90
2022/11/03 09:32:01;;;;;;;8.18;2.30;;;13.00;99.90;;;;;;5035263;28;20563;-87
2022/11/03 09:34:28;;;;;;;9.55;2.88;;;13.10;99.90;;;;;;5035868;28;20061;-86
2022/11/03 09:36:54;;;;;;;13.95;2.60;;;13.10;99.90;;;;;;5031431;28;20054;-91
2022/11/03 09:39:21;;;;;;;14.15;2.90;;;13.20;99.90;;;;;;5031640;28;20045;-83
2022/11/03 09:41:47;;;;;;;13.27;2.67;;;13.20;99.90;;;;;;5031895;28;20379;-89
2022/11/03 09:44:13;;;;;;;10.48;2.60;;;13.20;99.90;;;;;;5032019;28;20046;-94
2022/11/03 09:46:39;;;;;;;12.73;3.65;;;13.20;99.90;;;;;;5032388;28;20049;-87
2022/11/03 09:49:05;;;;;;;16.58;3.05;;;13.30;99.90;;;;;;5032406;28;20597;-82
2022/11/03 09:51:33;;;;;;;14.32;3.30;;;13.30;99.90;;;;;;5015229;28;20057;-88
2022/11/03 09:54:03;;;;;;;10.35;3.80;;;13.30;99.90;;;;;;5031977;28;20059;-86
2022/11/03 09:56:30;;;;;;;14.60;2.58;;;13.30;99.90;;;;;;5030629;28;20050;-84
2022/11/03 09:58:56;;;;;;;13.20;3.22;;;13.30;99.90;;;;;;5034084;28;20057;-84
2022/11/03 10:01:22;;;;;;;14.52;2.42;;;13.30;99.90;;;;;;5034606;28;20052;-83
2022/11/03 10:03:48;;;;;;;11.57;2.53;;;13.40;99.90;;;;;;5037731;28;20055;-85
2022/11/03 10:06:16;;;;;;;11.68;2.60;;;13.40;99.90;;;;;;5036397;28;20045;-83
2022/11/03 10:08:45;;;;;;;13.80;2.55;;;13.40;99.90;;;;;;5017955;28;20053;-93
2022/11/03 10:11:11;;;;;;;11.50;2.38;;;13.40;99.90;;;;;;5040389;28;20042;-85
2022/11/03 10:13:42;;;;;;;9.80;3.05;;;13.40;99.90;;;;;;5033292;28;20054;-82
2022/11/03 10:16:12;;;;;;;12.93;3.08;;;13.50;99.90;;;;;;5032829;28;20092;-83
2022/11/03 10:21:18;;;;;;;14.68;3.22;;;13.60;99.90;;;;;;5192900;22;20061;-89
2022/11/03 10:23:44;;;;;;;12.88;3.90;;;13.60;99.90;;;;;;5034648;28;20045;-84
2022/11/03 10:26:18;;;;;;;12.18;2.58;;;13.70;99.90;;;;;;5035810;28;20060;-87
2022/11/03 10:29:03;;;;;;;12.13;2.78;;;13.70;99.90;;;;;;5000134;28;20046;-86
2022/11/03 10:31:36;;;;;;;13.02;2.38;;;13.70;99.90;;;;;;5016164;28;20504;-90
2022/11/03 10:34:03;;;;;;;14.25;3.30;;;13.70;99.90;;;;;;5034287;28;20515;-91
2022/11/03 10:36:31;;;;;;;9.73;2.92;;;13.80;99.90;;;;;;5039870;28;20072;-92
2022/11/03 10:39:00;;;;;;;11.88;2.38;;;13.70;99.90;;;;;;5034634;28;20110;-87
2022/11/03 10:41:30;;;;;;;13.07;2.53;;;13.70;99.90;;;;;;5016271;28;20497;-85
2022/11/03 10:44:10;;;;;;;14.80;2.67;;;13.70;99.90;;;;;;5034456;28;20053;-86
2022/11/03 10:46:37;;;;;;;13.07;2.45;;;13.70;99.90;;;;;;5035926;28;20128;-84
2022/11/03 10:49:09;;;;;;;13.55;3.00;;;13.70;99.90;;;;;;5017690;28;20145;-88
2022/11/03 10:51:36;;;;;;;14.90;3.22;;;13.70;99.90;;;;;;5018348;28;20045;-92
2022/11/03 10:54:03;;;;;;;10.52;3.38;;;13.70;99.90;;;;;;5017755;28;20121;-89
2022/11/03 10:56:31;;;;;;;12.93;2.22;;;13.70;99.90;;;;;;5016398;28;20061;-87
2022/11/03 10:58:58;;;;;;;9.40;2.60;;;13.70;99.90;;;;;;5016907;28;20061;-88
2022/11/03 11:01:25;;;;;;;10.15;2.20;;;13.70;99.90;;;;;;5016591;28;20049;-90
2022/11/03 11:03:51;;;;;;;10.18;2.20;;;13.80;99.90;;;;;;5040160;28;20136;-85
2022/11/03 11:06:28;;;;;;;11.82;2.40;;;13.80;99.90;;;;;;5033919;28;20125;-82
2022/11/03 11:09:00;;;;;;;10.05;2.25;;;13.80;99.90;;;;;;5041280;28;20053;-84
2022/11/03 11:11:26;;;;;;;14.55;2.83;;;13.90;99.90;;;;;;5019158;28;20136;-92
2022/11/03 11:14:33;;;;;;;8.65;3.10;;;14.00;99.90;;;;;;5015648;28;20065;-85
2022/11/03 11:17:00;;;;;;;11.38;2.92;;;14.10;99.90;;;;;;5020232;28;20859;-82
2022/11/03 11:19:28;;;;;;;12.38;3.42;;;14.30;99.90;;;;;;5016796;28;20060;-86
2022/11/03 11:21:54;;;;;;;9.75;2.50;;;14.40;99.90;;;;;;5015495;28;20042;-87
2022/11/03 11:24:42;;;;;;;12.40;2.80;;;14.50;99.90;;;;;;5016319;28;20417;-90
2022/11/03 11:27:26;;;;;;;9.98;2.58;;;14.60;99.90;;;;;;5033516;28;20049;-90
2022/11/03 11:33:33;;;;;;;8.98;2.28;;;14.70;99.90;;;;;;5038047;28;20037;-90
2022/11/03 11:35:59;;;;;;;15.07;2.90;;;14.80;99.90;;;;;;5019116;28;20072;-83
2022/11/03 11:39:02;;;;;;;10.05;2.40;;;14.90;99.90;;;;;;4999086;28;20045;-83
2022/11/03 11:42:05;;;;;;;10.70;2.50;;;14.90;99.90;;;;;;4957388;28;20055;-83
2022/11/03 11:44:46;;;;;;;9.57;2.25;;;14.90;99.90;;;;;;5032683;28;20064;-92
2022/11/03 11:47:33;;;;;;;10.05;2.97;;;15.00;99.90;;;;;;5037078;28;20084;-84
2022/11/03 11:50:28;;;;;;;13.88;2.95;;;15.10;99.90;;;;;;5019256;28;20501;-84
2022/11/03 11:52:58;;;;;;;11.98;3.13;;;15.20;99.90;;;;;;5036489;28;20087;-83
2022/11/03 11:55:30;;;;;;;13.52;3.47;;;15.60;99.90;;;;;;5015348;28;20061;-89
2022/11/03 11:57:58;;;;;;;10.15;2.28;;;16.10;99.90;;;;;;5033081;28;20054;-83
2022/11/03 12:00:28;;;;;;;7.70;2.03;;;16.70;99.90;;;;;;5016571;28;20053;-83
2022/11/03 12:02:55;;;;;;;13.88;2.25;;;16.70;99.90;;;;;;5034309;28;20060;-85
2022/11/03 12:05:29;;;;;;;7.75;3.08;;;16.60;99.90;;;;;;5042459;28;20076;-85
2022/11/03 12:07:55;;;;;;;5.35;1.80;;;16.30;99.90;;;;;;5045495;28;20059;-83
2022/11/03 12:10:27;;;;;;;11.05;2.28;;;16.10;99.90;;;;;;5039246;28;20041;-92
2022/11/03 12:12:56;;;;;;;11.32;2.63;;;16.00;99.90;;;;;;5039416;28;20143;-94
2022/11/03 12:15:47;;;;;;;8.77;2.78;;;15.90;99.90;;;;;;5039322;28;20041;-90
2022/11/03 12:18:40;;;;;;;9.85;2.20;;;15.90;99.90;;;;;;5024304;28;20049;-81
2022/11/03 12:21:13;;;;;;;10.38;2.53;;;15.80;99.90;;;;;;4998514;28;20050;-92
2022/11/03 12:23:44;;;;;;;10.45;1.85;;;15.90;99.90;;;;;;5014385;28;20053;-88
2022/11/03 12:26:38;;;;;;;8.02;2.25;;;15.90;99.90;;;;;;5014091;28;20053;-87
2022/11/03 12:29:09;;;;;;;7.43;2.22;;;15.90;99.90;;;;;;5012814;28;20054;-88
2022/11/03 12:31:35;;;;;;;8.15;1.67;;;15.80;99.90;;;;;;5017186;28;20111;-91
2022/11/03 12:34:01;;;;;;;13.00;2.47;;;15.70;99.90;;;;;;5027415;28;20105;-82
2022/11/03 12:36:27;;;;;;;12.15;2.20;;;15.60;99.90;;;;;;5018942;28;20490;-83
2022/11/03 12:38:53;;;;;;;6.55;2.08;;;15.50;99.90;;;;;;5023694;28;20067;-82
2022/11/03 12:41:20;;;;;;;11.90;2.08;;;15.40;99.90;;;;;;5025085;28;20042;-82
2022/11/03 12:43:48;;;;;;;12.82;1.90;;;15.40;99.90;;;;;;5019734;28;20049;-81
2022/11/03 12:46:18;;;;;;;7.40;2.13;;;15.30;99.90;;;;;;5017037;28;20073;-81
2022/11/03 12:48:46;;;;;;;13.15;3.05;;;15.30;99.90;;;;;;5011349;28;20054;-81
2022/11/03 12:51:22;;;;;;;7.85;2.10;;;15.30;99.90;;;;;;5013965;28;20056;-81
2022/11/03 12:53:48;;;;;;;6.78;1.77;;;15.20;99.90;;;;;;4995333;28;20053;-87
2022/11/03 12:56:16;;;;;;;8.38;1.58;;;15.20;99.90;;;;;;5018877;28;20228;-84
2022/11/03 12:58:42;;;;;;;9.40;2.63;;;15.20;99.90;;;;;;5011327;28;20125;-82
2022/11/03 13:01:08;;;;;;;10.40;2.13;;;15.10;99.90;;;;;;5012342;28;20379;-92
2022/11/03 13:03:35;;;;;;;10.57;2.03;;;15.20;99.90;;;;;;5013934;28;20053;-85
2022/11/03 13:06:03;;;;;;;7.40;2.08;;;15.10;99.90;;;;;;5012037;28;20061;-83
2022/11/03 13:08:32;;;;;;;7.03;1.98;;;15.10;99.90;;;;;;5011303;28;20136;-87
2022/11/03 13:10:58;;;;;;;9.82;2.80;;;15.10;99.90;;;;;;5014296;28;20486;-82
2022/11/03 13:13:25;;;;;;;10.10;2.92;;;15.10;99.90;;;;;;5014560;28;20049;-86
2022/11/03 13:15:52;;;;;;;9.00;1.73;;;15.10;99.90;;;;;;5011681;28;20050;-82
2022/11/03 13:18:21;;;;;;;8.13;1.92;;;15.10;99.90;;;;;;5010077;28;20053;-81